sensor_id;sensor_type;location;lat;lon;timestamp;temperature;humidity
8736;DHT22;4404;49.308;12.178;2023-04-28T07:20:45;10.40;99.90
8736;DHT22;4404;49.308;12.178;2023-04-28T07:22:47;11.10;99.90
8736;DHT22;4404;49.308;12.178;2023-04-28T07:24:49;11.20;99.90
8736;DHT22;4404;49.308;12.178;2023-04-28T07:26:51;11.30;99.90
8736;DHT22;4404;49.308;12.178;2023-04-28T07:28:53;11.40;99.90
8736;DHT22;4404;49.308;12.178;2023-04-28T07:30:55;11.70;99.90
8736;DHT22;4404;49.308;12.178;2023-04-28T07:32:58;11.70;99.90
8736;DHT22;4404;49.308;12.178;2023-04-28T07:35:00;11.80;99.90
8736;DHT22;4404;49.308;12.178;2023-04-28T07:37:04;11.90;99.90
8736;DHT22;4404;49.308;12.178;2023-04-28T07:39:06;12.10;99.90
8736;DHT22;4404;49.308;12.178;2023-04-28T07:41:08;12.10;99.90
8736;DHT22;4404;49.308;12.178;2023-04-28T07:43:10;12.30;99.90
8736;DHT22;4404;49.308;12.178;2023-04-28T07:45:13;12.30;99.90
8736;DHT22;4404;49.308;12.178;2023-04-28T07:47:16;12.50;99.90
8736;DHT22;4404;49.308;12.178;2023-04-28T07:49:18;12.60;99.90
8736;DHT22;4404;49.308;12.178;2023-04-28T07:51:20;12.60;99.90
8736;DHT22;4404;49.308;12.178;2023-04-28T07:53:24;12.70;99.90
8736;DHT22;4404;49.308;12.178;2023-04-28T07:55:26;12.60;99.90
8736;DHT22;4404;49.308;12.178;2023-04-28T07:57:28;12.60;99.90
8736;DHT22;4404;49.308;12.178;2023-04-28T07:59:31;12.60;99.90
8736;DHT22;4404;49.308;12.178;2023-04-28T08:01:33;12.70;99.90
8736;DHT22;4404;49.308;12.178;2023-04-28T08:03:35;12.70;99.90
8736;DHT22;4404;49.308;12.178;2023-04-28T08:05:38;12.70;99.90
8736;DHT22;4404;49.308;12.178;2023-04-28T08:07:40;12.70;99.90
8736;DHT22;4404;49.308;12.178;2023-04-28T08:09:44;12.70;99.90
8736;DHT22;4404;49.308;12.178;2023-04-28T08:11:47;12.60;99.90
8736;DHT22;4404;49.308;12.178;2023-04-28T08:13:49;12.70;99.90
8736;DHT22;4404;49.308;12.178;2023-04-28T08:15:51;12.70;99.90
8736;DHT22;4404;49.308;12.178;2023-04-28T08:17:55;12.70;99.90
8736;DHT22;4404;49.308;12.178;2023-04-28T08:19:57;12.80;99.90
8736;DHT22;4404;49.308;12.178;2023-04-28T08:21:59;12.80;99.90
8736;DHT22;4404;49.308;12.178;2023-04-28T08:24:05;12.80;99.90
8736;DHT22;4404;49.308;12.178;2023-04-28T08:26:09;12.80;99.90
8736;DHT22;4404;49.308;12.178;2023-04-28T08:28:11;12.80;99.90
8736;DHT22;4404;49.308;12.178;2023-04-28T08:30:13;12.80;99.90
8736;DHT22;4404;49.308;12.178;2023-04-28T08:32:15;12.80;99.90
8736;DHT22;4404;49.308;12.178;2023-04-28T08:34:17;12.80;99.90
8736;DHT22;4404;49.308;12.178;2023-04-28T08:36:19;12.70;99.90
8736;DHT22;4404;49.308;12.178;2023-04-28T08:38:21;12.70;99.90
8736;DHT22;4404;49.308;12.178;2023-04-28T08:40:24;12.60;99.90
8736;DHT22;4404;49.308;12.178;2023-04-28T08:42:30;12.40;99.90
8736;DHT22;4404;49.308;12.178;2023-04-28T08:44:36;12.40;99.90
8736;DHT22;4404;49.308;12.178;2023-04-28T08:46:40;12.30;99.90
8736;DHT22;4404;49.308;12.178;2023-04-28T08:48:43;12.30;99.90
8736;DHT22;4404;49.308;12.178;2023-04-28T08:50:49;12.20;99.90
8736;DHT22;4404;49.308;12.178;2023-04-28T08:52:54;12.20;99.90
8736;DHT22;4404;49.308;12.178;2023-04-28T08:54:58;12.20;99.90
8736;DHT22;4404;49.308;12.178;2023-04-28T08:57:02;12.20;99.90
8736;DHT22;4404;49.308;12.178;2023-04-28T08:59:06;12.20;99.90
8736;DHT22;4404;49.308;12.178;2023-04-28T09:01:09;12.10;99.90
8736;DHT22;4404;49.308;12.178;2023-04-28T09:03:11;12.10;99.90
8736;DHT22;4404;49.308;12.178;2023-04-28T09:05:13;12.00;99.90
8736;DHT22;4404;49.308;12.178;2023-04-28T09:07:15;12.00;99.90
8736;DHT22;4404;49.308;12.178;2023-04-28T09:09:21;11.90;99.90
8736;DHT22;4404;49.308;12.178;2023-04-28T09:11:24;11.80;99.90
8736;DHT22;4404;49.308;12.178;2023-04-28T09:13:26;11.80;99.90
8736;DHT22;4404;49.308;12.178;2023-04-28T09:15:31;11.70;99.90
8736;DHT22;4404;49.308;12.178;2023-04-28T09:17:46;11.70;99.90
8736;DHT22;4404;49.308;12.178;2023-04-28T09:19:49;11.60;99.90
8736;DHT22;4404;49.308;12.178;2023-04-28T09:21:53;11.50;99.90
8736;DHT22;4404;49.308;12.178;2023-04-28T09:23:56;11.40;99.90
8736;DHT22;4404;49.308;12.178;2023-04-28T09:25:59;11.30;99.90
8736;DHT22;4404;49.308;12.178;2023-04-28T09:28:19;11.30;99.90
8736;DHT22;4404;49.308;12.178;2023-04-28T09:33:03;11.20;99.90
8736;DHT22;4404;49.308;12.178;2023-04-28T09:35:06;11.30;99.90
8736;DHT22;4404;49.308;12.178;2023-04-28T09:37:14;11.30;99.90
8736;DHT22;4404;49.308;12.178;2023-04-28T09:39:29;11.20;99.90
8736;DHT22;4404;49.308;12.178;2023-04-28T09:41:35;11.30;99.90
8736;DHT22;4404;49.308;12.178;2023-04-28T09:43:39;11.30;99.90
8736;DHT22;4404;49.308;12.178;2023-04-28T09:45:41;11.40;99.90
8736;DHT22;4404;49.308;12.178;2023-04-28T09:47:46;11.40;99.90
8736;DHT22;4404;49.308;12.178;2023-04-28T09:49:58;11.30;99.90
8736;DHT22;4404;49.308;12.178;2023-04-28T09:52:11;11.20;99.90
8736;DHT22;4404;49.308;12.178;2023-04-28T09:54:15;11.20;99.90
8736;DHT22;4404;49.308;12.178;2023-04-28T09:56:20;11.20;99.90
8736;DHT22;4404;49.308;12.178;2023-04-28T09:58:24;11.10;99.90
8736;DHT22;4404;49.308;12.178;2023-04-28T10:00:27;11.00;99.90
8736;DHT22;4404;49.308;12.178;2023-04-28T10:02:29;10.80;99.90
8736;DHT22;4404;49.308;12.178;2023-04-28T10:04:33;10.90;99.90
8736;DHT22;4404;49.308;12.178;2023-04-28T10:06:37;10.90;99.90
8736;DHT22;4404;49.308;12.178;2023-04-28T10:08:40;10.90;99.90
8736;DHT22;4404;49.308;12.178;2023-04-28T10:10:54;11.00;99.90
8736;DHT22;4404;49.308;12.178;2023-04-28T10:13:03;11.00;99.90
8736;DHT22;4404;49.308;12.178;2023-04-28T10:15:08;11.10;99.90
8736;DHT22;4404;49.308;12.178;2023-04-28T10:17:12;11.00;99.90
8736;DHT22;4404;49.308;12.178;2023-04-28T10:19:16;10.90;99.90
8736;DHT22;4404;49.308;12.178;2023-04-28T10:21:26;10.90;99.90
8736;DHT22;4404;49.308;12.178;2023-04-28T10:26:26;10.80;99.90
8736;DHT22;4404;49.308;12.178;2023-04-28T10:28:57;10.80;99.90
8736;DHT22;4404;49.308;12.178;2023-04-28T10:31:10;10.80;99.90
8736;DHT22;4404;49.308;12.178;2023-04-28T10:33:26;10.70;99.90
8736;DHT22;4404;49.308;12.178;2023-04-28T10:35:40;10.80;99.90
8736;DHT22;4404;49.308;12.178;2023-04-28T10:38:05;11.00;99.90
8736;DHT22;4404;49.308;12.178;2023-04-28T10:40:32;11.00;99.90
8736;DHT22;4404;49.308;12.178;2023-04-28T10:42:55;11.00;99.90
8736;DHT22;4404;49.308;12.178;2023-04-28T10:45:01;11.00;99.90
8736;DHT22;4404;49.308;12.178;2023-04-28T10:47:06;11.00;99.90
8736;DHT22;4404;49.308;12.178;2023-04-28T10:49:11;10.90;99.90
8736;DHT22;4404;49.308;12.178;2023-04-28T10:51:25;10.80;99.90
8736;DHT22;4404;49.308;12.178;2023-04-28T10:56:27;11.00;99.90
8736;DHT22;4404;49.308;12.178;2023-04-28T10:58:33;11.00;99.90
8736;DHT22;4404;49.308;12.178;2023-04-28T11:00:44;11.00;99.90
8736;DHT22;4404;49.308;12.178;2023-04-28T11:02:48;11.00;99.90
8736;DHT22;4404;49.308;12.178;2023-04-28T11:05:18;11.10;99.90
8736;DHT22;4404;49.308;12.178;2023-04-28T11:07:22;11.10;99.90
8736;DHT22;4404;49.308;12.178;2023-04-28T11:09:47;11.20;99.90
8736;DHT22;4404;49.308;12.178;2023-04-28T11:12:05;11.30;99.90
8736;DHT22;4404;49.308;12.178;2023-04-28T11:14:32;11.30;99.90
8736;DHT22;4404;49.308;12.178;2023-04-28T11:16:49;11.30;99.90
8736;DHT22;4404;49.308;12.178;2023-04-28T11:18:58;11.30;99.90
8736;DHT22;4404;49.308;12.178;2023-04-28T11:21:09;11.40;99.90
8736;DHT22;4404;49.308;12.178;2023-04-28T11:23:14;11.60;99.90
8736;DHT22;4404;49.308;12.178;2023-04-28T11:25:17;11.60;99.90
8736;DHT22;4404;49.308;12.178;2023-04-28T11:27:26;11.50;99.90
8736;DHT22;4404;49.308;12.178;2023-04-28T11:29:42;11.40;99.90
8736;DHT22;4404;49.308;12.178;2023-04-28T11:31:50;11.50;99.90
8736;DHT22;4404;49.308;12.178;2023-04-28T11:33:56;11.50;99.90
8736;DHT22;4404;49.308;12.178;2023-04-28T11:36:03;11.50;99.90
8736;DHT22;4404;49.308;12.178;2023-04-28T11:38:08;11.50;99.90
8736;DHT22;4404;49.308;12.178;2023-04-28T11:40:14;11.70;99.90
8736;DHT22;4404;49.308;12.178;2023-04-28T11:42:18;11.70;99.90
8736;DHT22;4404;49.308;12.178;2023-04-28T11:44:29;11.70;99.90
8736;DHT22;4404;49.308;12.178;2023-04-28T11:46:43;11.70;99.90
8736;DHT22;4404;49.308;12.178;2023-04-28T11:48:59;11.80;99.90
8736;DHT22;4404;49.308;12.178;2023-04-28T11:51:08;11.80;99.90
8736;DHT22;4404;49.308;12.178;2023-04-28T11:53:13;11.80;99.90
8736;DHT22;4404;49.308;12.178;2023-04-28T11:55:18;11.80;99.90
8736;DHT22;4404;49.308;12.178;2023-04-28T11:57:23;11.80;99.90
8736;DHT22;4404;49.308;12.178;2023-04-28T11:59:31;11.70;99.90
8736;DHT22;4404;49.308;12.178;2023-04-28T12:01:46;11.70;99.90
8736;DHT22;4404;49.308;12.178;2023-04-28T12:03:52;11.80;99.90
8736;DHT22;4404;49.308;12.178;2023-04-28T12:06:05;11.90;99.90
8736;DHT22;4404;49.308;12.178;2023-04-28T12:08:12;11.90;99.90
8736;DHT22;4404;49.308;12.178;2023-04-28T12:10:16;11.80;99.90
8736;DHT22;4404;49.308;12.178;2023-04-28T12:12:27;11.80;99.90
8736;DHT22;4404;49.308;12.178;2023-04-28T12:14:56;11.90;99.90
8736;DHT22;4404;49.308;12.178;2023-04-28T12:17:01;11.90;99.90
8736;DHT22;4404;49.308;12.178;2023-04-28T12:19:06;11.80;99.90
8736;DHT22;4404;49.308;12.178;2023-04-28T12:21:20;11.80;99.90
8736;DHT22;4404;49.308;12.178;2023-04-28T12:23:31;11.80;99.90
8736;DHT22;4404;49.308;12.178;2023-04-28T12:25:42;11.70;99.90
8736;DHT22;4404;49.308;12.178;2023-04-28T12:27:58;11.80;99.90
8736;DHT22;4404;49.308;12.178;2023-04-28T12:30:23;11.70;99.90
8736;DHT22;4404;49.308;12.178;2023-04-28T12:32:38;11.80;99.90
8736;DHT22;4404;49.308;12.178;2023-04-28T12:34:45;11.80;99.90
8736;DHT22;4404;49.308;12.178;2023-04-28T12:36:50;11.80;99.90
8736;DHT22;4404;49.308;12.178;2023-04-28T12:38:53;11.90;99.90
8736;DHT22;4404;49.308;12.178;2023-04-28T12:41:00;11.90;99.90
8736;DHT22;4404;49.308;12.178;2023-04-28T12:43:06;11.90;99.90
8736;DHT22;4404;49.308;12.178;2023-04-28T12:45:11;11.90;99.90
8736;DHT22;4404;49.308;12.178;2023-04-28T12:47:16;11.90;99.90
8736;DHT22;4404;49.308;12.178;2023-04-28T12:49:21;11.90;99.90
8736;DHT22;4404;49.308;12.178;2023-04-28T12:51:26;11.90;99.90
8736;DHT22;4404;49.308;12.178;2023-04-28T12:53:30;11.90;99.90
8736;DHT22;4404;49.308;12.178;2023-04-28T12:55:32;12.00;99.90
8736;DHT22;4404;49.308;12.178;2023-04-28T12:57:38;11.90;99.90
8736;DHT22;4404;49.308;12.178;2023-04-28T12:59:47;11.90;99.90
8736;DHT22;4404;49.308;12.178;2023-04-28T13:01:57;11.90;99.90
8736;DHT22;4404;49.308;12.178;2023-04-28T13:04:07;12.00;99.90
8736;DHT22;4404;49.308;12.178;2023-04-28T13:06:16;11.90;99.90
8736;DHT22;4404;49.308;12.178;2023-04-28T13:08:23;11.90;99.90
8736;DHT22;4404;49.308;12.178;2023-04-28T13:10:27;11.80;99.90
8736;DHT22;4404;49.308;12.178;2023-04-28T13:12:42;11.90;99.90
8736;DHT22;4404;49.308;12.178;2023-04-28T13:14:51;11.90;99.90
8736;DHT22;4404;49.308;12.178;2023-04-28T13:16:56;11.90;99.90
8736;DHT22;4404;49.308;12.178;2023-04-28T13:19:01;11.90;99.90
8736;DHT22;4404;49.308;12.178;2023-04-28T13:21:10;11.90;99.90
8736;DHT22;4404;49.308;12.178;2023-04-28T13:23:17;12.00;99.90
8736;DHT22;4404;49.308;12.178;2023-04-28T13:25:25;12.00;99.90
8736;DHT22;4404;49.308;12.178;2023-04-28T13:27:31;12.10;99.90
8736;DHT22;4404;49.308;12.178;2023-04-28T13:29:34;12.10;99.90
8736;DHT22;4404;49.308;12.178;2023-04-28T13:31:37;12.20;99.90
8736;DHT22;4404;49.308;12.178;2023-04-28T13:33:43;12.20;99.90
8736;DHT22;4404;49.308;12.178;2023-04-28T13:35:49;12.10;99.90
8736;DHT22;4404;49.308;12.178;2023-04-28T13:37:54;12.10;99.90
8736;DHT22;4404;49.308;12.178;2023-04-28T13:40:01;12.10;99.90
8736;DHT22;4404;49.308;12.178;2023-04-28T13:42:06;12.10;99.90
8736;DHT22;4404;49.308;12.178;2023-04-28T13:44:14;12.20;99.90
8736;DHT22;4404;49.308;12.178;2023-04-28T13:46:17;12.30;99.90
8736;DHT22;4404;49.308;12.178;2023-04-28T13:48:20;12.20;99.90
8736;DHT22;4404;49.308;12.178;2023-04-28T13:50:26;12.20;99.90
8736;DHT22;4404;49.308;12.178;2023-04-28T13:52:31;12.20;99.90
8736;DHT22;4404;49.308;12.178;2023-04-28T13:54:34;12.20;99.90
8736;DHT22;4404;49.308;12.178;2023-04-28T13:56:39;12.30;99.90
8736;DHT22;4404;49.308;12.178;2023-04-28T13:58:42;12.30;99.90
8736;DHT22;4404;49.308;12.178;2023-04-28T14:00:49;12.30;99.90
8736;DHT22;4404;49.308;12.178;2023-04-28T14:02:54;12.40;99.90
8736;DHT22;4404;49.308;12.178;2023-04-28T14:05:01;12.30;99.90
8736;DHT22;4404;49.308;12.178;2023-04-28T14:07:05;12.30;99.90
8736;DHT22;4404;49.308;12.178;2023-04-28T14:09:08;12.30;99.90
8736;DHT22;4404;49.308;12.178;2023-04-28T14:11:13;12.40;99.90
8736;DHT22;4404;49.308;12.178;2023-04-28T14:13:16;12.40;99.90
8736;DHT22;4404;49.308;12.178;2023-04-28T14:15:22;12.50;99.90
8736;DHT22;4404;49.308;12.178;2023-04-28T14:17:24;12.60;99.90
8736;DHT22;4404;49.308;12.178;2023-04-28T14:19:29;12.60;99.90
8736;DHT22;4404;49.308;12.178;2023-04-28T14:21:33;12.60;99.90
8736;DHT22;4404;49.308;12.178;2023-04-28T14:23:39;12.60;99.90
8736;DHT22;4404;49.308;12.178;2023-04-28T14:25:43;12.60;99.90
8736;DHT22;4404;49.308;12.178;2023-04-28T14:27:48;12.60;99.90
8736;DHT22;4404;49.308;12.178;2023-04-28T14:29:51;12.60;99.90
8736;DHT22;4404;49.308;12.178;2023-04-28T14:31:53;12.60;99.90
8736;DHT22;4404;49.308;12.178;2023-04-28T14:34:02;12.50;99.90
8736;DHT22;4404;49.308;12.178;2023-04-28T14:36:09;12.50;99.90
8736;DHT22;4404;49.308;12.178;2023-04-28T14:38:12;12.50;99.90
8736;DHT22;4404;49.308;12.178;2023-04-28T14:40:20;12.60;99.90
8736;DHT22;4404;49.308;12.178;2023-04-28T14:42:27;12.60;99.90
8736;DHT22;4404;49.308;12.178;2023-04-28T14:44:37;12.60;99.90
8736;DHT22;4404;49.308;12.178;2023-04-28T14:46:42;12.70;99.90
8736;DHT22;4404;49.308;12.178;2023-04-28T14:48:45;12.70;99.90
8736;DHT22;4404;49.308;12.178;2023-04-28T14:50:49;12.70;99.90
8736;DHT22;4404;49.308;12.178;2023-04-28T14:52:53;12.60;99.90
8736;DHT22;4404;49.308;12.178;2023-04-28T14:54:56;12.70;99.90
8736;DHT22;4404;49.308;12.178;2023-04-28T14:57:00;12.60;99.90
8736;DHT22;4404;49.308;12.178;2023-04-28T14:59:05;12.60;99.90
8736;DHT22;4404;49.308;12.178;2023-04-28T15:01:07;12.60;99.90
8736;DHT22;4404;49.308;12.178;2023-04-28T15:03:10;12.70;99.90
8736;DHT22;4404;49.308;12.178;2023-04-28T15:05:15;12.80;99.90
8736;DHT22;4404;49.308;12.178;2023-04-28T15:07:19;12.80;99.90
8736;DHT22;4404;49.308;12.178;2023-04-28T15:09:21;12.80;99.90
8736;DHT22;4404;49.308;12.178;2023-04-28T15:11:24;12.70;99.90
8736;DHT22;4404;49.308;12.178;2023-04-28T15:13:29;12.70;99.90
8736;DHT22;4404;49.308;12.178;2023-04-28T15:15:32;12.70;99.90
8736;DHT22;4404;49.308;12.178;2023-04-28T15:17:35;12.80;99.90
8736;DHT22;4404;49.308;12.178;2023-04-28T15:19:39;12.90;99.90
8736;DHT22;4404;49.308;12.178;2023-04-28T15:21:45;12.90;99.90
8736;DHT22;4404;49.308;12.178;2023-04-28T15:23:49;12.80;99.90
8736;DHT22;4404;49.308;12.178;2023-04-28T15:25:53;12.80;99.90
8736;DHT22;4404;49.308;12.178;2023-04-28T15:27:55;12.70;99.90
8736;DHT22;4404;49.308;12.178;2023-04-28T15:29:58;12.80;99.90
8736;DHT22;4404;49.308;12.178;2023-04-28T15:32:00;12.80;99.90
8736;DHT22;4404;49.308;12.178;2023-04-28T15:34:03;12.90;99.90
8736;DHT22;4404;49.308;12.178;2023-04-28T15:36:08;12.90;99.90
8736;DHT22;4404;49.308;12.178;2023-04-28T15:38:14;12.80;99.90
8736;DHT22;4404;49.308;12.178;2023-04-28T15:40:21;12.90;99.90
8736;DHT22;4404;49.308;12.178;2023-04-28T15:42:25;13.00;99.90
8736;DHT22;4404;49.308;12.178;2023-04-28T15:44:31;13.00;99.90
8736;DHT22;4404;49.308;12.178;2023-04-28T15:46:43;13.10;99.90
8736;DHT22;4404;49.308;12.178;2023-04-28T15:48:53;13.10;99.90
8736;DHT22;4404;49.308;12.178;2023-04-28T15:51:00;13.20;99.90
8736;DHT22;4404;49.308;12.178;2023-04-28T15:53:05;13.20;99.90
8736;DHT22;4404;49.308;12.178;2023-04-28T15:55:11;13.30;99.90
8736;DHT22;4404;49.308;12.178;2023-04-28T15:57:15;13.30;99.90
8736;DHT22;4404;49.308;12.178;2023-04-28T15:59:44;13.40;99.90
8736;DHT22;4404;49.308;12.178;2023-04-28T16:01:49;13.30;99.90
8736;DHT22;4404;49.308;12.178;2023-04-28T16:03:51;13.30;99.90
8736;DHT22;4404;49.308;12.178;2023-04-28T16:05:55;13.30;99.90
8736;DHT22;4404;49.308;12.178;2023-04-28T16:08:01;13.20;99.90
8736;DHT22;4404;49.308;12.178;2023-04-28T16:10:18;13.20;99.90
8736;DHT22;4404;49.308;12.178;2023-04-28T16:12:36;13.20;99.90
8736;DHT22;4404;49.308;12.178;2023-04-28T16:14:40;13.30;99.90
8736;DHT22;4404;49.308;12.178;2023-04-28T16:16:50;13.30;99.90
8736;DHT22;4404;49.308;12.178;2023-04-28T16:18:54;13.30;99.90
8736;DHT22;4404;49.308;12.178;2023-04-28T16:21:20;13.40;99.90
8736;DHT22;4404;49.308;12.178;2023-04-28T16:23:26;13.30;99.90
8736;DHT22;4404;49.308;12.178;2023-04-28T16:25:34;13.30;99.90
8736;DHT22;4404;49.308;12.178;2023-04-28T16:27:38;13.30;99.90
8736;DHT22;4404;49.308;12.178;2023-04-28T16:29:41;13.30;99.90
8736;DHT22;4404;49.308;12.178;2023-04-28T16:31:48;13.20;99.90
8736;DHT22;4404;49.308;12.178;2023-04-28T16:33:50;13.10;99.90
8736;DHT22;4404;49.308;12.178;2023-04-28T16:35:53;13.10;99.90
8736;DHT22;4404;49.308;12.178;2023-04-28T16:37:56;13.20;99.90
8736;DHT22;4404;49.308;12.178;2023-04-28T16:40:01;13.20;99.90
8736;DHT22;4404;49.308;12.178;2023-04-28T16:42:08;13.30;99.90
8736;DHT22;4404;49.308;12.178;2023-04-28T16:44:11;13.20;99.90
8736;DHT22;4404;49.308;12.178;2023-04-28T16:46:14;13.20;99.90
8736;DHT22;4404;49.308;12.178;2023-04-28T16:48:19;13.20;99.90
8736;DHT22;4404;49.308;12.178;2023-04-28T16:50:24;13.30;99.90
8736;DHT22;4404;49.308;12.178;2023-04-28T16:52:28;13.40;99.90
8736;DHT22;4404;49.308;12.178;2023-04-28T16:54:31;13.40;99.90
8736;DHT22;4404;49.308;12.178;2023-04-28T16:56:39;13.30;99.90
8736;DHT22;4404;49.308;12.178;2023-04-28T16:58:41;13.30;99.90
8736;DHT22;4404;49.308;12.178;2023-04-28T17:00:47;13.30;99.90
8736;DHT22;4404;49.308;12.178;2023-04-28T17:02:50;13.30;99.90
8736;DHT22;4404;49.308;12.178;2023-04-28T17:04:53;13.30;99.90
8736;DHT22;4404;49.308;12.178;2023-04-28T17:06:56;13.30;99.90
8736;DHT22;4404;49.308;12.178;2023-04-28T17:08:58;13.30;99.90
8736;DHT22;4404;49.308;12.178;2023-04-28T17:11:02;13.30;99.90
8736;DHT22;4404;49.308;12.178;2023-04-28T17:13:05;13.20;99.90
8736;DHT22;4404;49.308;12.178;2023-04-28T17:15:07;13.30;99.90
8736;DHT22;4404;49.308;12.178;2023-04-28T17:17:10;13.20;99.90
8736;DHT22;4404;49.308;12.178;2023-04-28T17:19:13;13.20;99.90
8736;DHT22;4404;49.308;12.178;2023-04-28T17:21:21;13.20;99.90
8736;DHT22;4404;49.308;12.178;2023-04-28T17:23:23;13.20;99.90
8736;DHT22;4404;49.308;12.178;2023-04-28T17:25:28;13.10;99.90
8736;DHT22;4404;49.308;12.178;2023-04-28T17:27:32;13.10;99.90
8736;DHT22;4404;49.308;12.178;2023-04-28T17:29:36;13.10;99.90
8736;DHT22;4404;49.308;12.178;2023-04-28T17:31:44;13.20;99.90
8736;DHT22;4404;49.308;12.178;2023-04-28T17:33:48;13.20;99.90
8736;DHT22;4404;49.308;12.178;2023-04-28T17:35:53;13.20;99.90
8736;DHT22;4404;49.308;12.178;2023-04-28T17:37:57;13.10;99.90
8736;DHT22;4404;49.308;12.178;2023-04-28T17:40:00;13.10;99.90
8736;DHT22;4404;49.308;12.178;2023-04-28T17:42:04;13.20;99.90
8736;DHT22;4404;49.308;12.178;2023-04-28T17:44:06;13.20;99.90
8736;DHT22;4404;49.308;12.178;2023-04-28T17:46:11;13.10;99.90
8736;DHT22;4404;49.308;12.178;2023-04-28T17:48:17;13.10;99.90
8736;DHT22;4404;49.308;12.178;2023-04-28T17:50:22;13.20;99.90
8736;DHT22;4404;49.308;12.178;2023-04-28T17:52:24;13.30;99.90
8736;DHT22;4404;49.308;12.178;2023-04-28T17:54:30;13.30;99.90
8736;DHT22;4404;49.308;12.178;2023-04-28T17:56:45;13.30;99.90
8736;DHT22;4404;49.308;12.178;2023-04-28T18:02:54;13.20;99.90
8736;DHT22;4404;49.308;12.178;2023-04-28T18:05:54;13.20;99.90
